createdAt,value
2023-04-25T00:01:45.595Z,93319.59
2023-04-25T00:04:34.887Z,93316.56
2023-04-25T00:07:22.059Z,93315.25
2023-04-25T00:10:09.846Z,93308.31
2023-04-25T00:12:56.624Z,93306.44
2023-04-25T00:15:43.622Z,93304.38
2023-04-25T00:18:30.592Z,93305.56
2023-04-25T00:21:19.096Z,93303.16
2023-04-25T00:24:06.267Z,93305.13
2023-04-25T00:26:55.794Z,93295.72
2023-04-25T00:29:42.575Z,93289.44
2023-04-25T00:32:29.475Z,93280.84
2023-04-25T00:35:16.605Z,93285.88
2023-04-25T00:38:03.584Z,93264.53
2023-04-25T00:40:50.409Z,93271.28
2023-04-25T00:43:38.401Z,93275.66
2023-04-25T00:46:25.188Z,93281.59
2023-04-25T00:49:16.472Z,93279.22
2023-04-25T00:52:03.502Z,93277.66
2023-04-25T00:54:50.455Z,93272.66
2023-04-25T00:57:37.823Z,93286.00
2023-04-25T01:00:24.988Z,93285.28
2023-04-25T01:03:11.948Z,93281.84
2023-04-25T01:05:58.865Z,93276.09
2023-04-25T01:08:45.770Z,93279.94
2023-04-25T01:11:32.646Z,93283.03
2023-04-25T01:14:19.524Z,93286.50
2023-04-25T01:17:08.700Z,93280.25
2023-04-25T01:19:56.282Z,93282.13
2023-04-25T01:22:43.890Z,93297.69
2023-04-25T01:25:34.706Z,93309.72
2023-04-25T01:28:21.794Z,93307.84
2023-04-25T01:31:09.447Z,93316.44
2023-04-25T01:33:56.459Z,93306.44
2023-04-25T01:36:43.370Z,93303.38
2023-04-25T01:39:30.581Z,93289.03
2023-04-25T01:42:17.636Z,93302.22
2023-04-25T01:45:05.297Z,93308.84
2023-04-25T01:47:52.171Z,93300.66
2023-04-25T01:50:40.204Z,93305.63
2023-04-25T01:53:27.116Z,93287.41
2023-04-25T01:56:13.930Z,93282.34
2023-04-25T01:59:01.030Z,93279.19
2023-04-25T02:01:47.861Z,93267.88
2023-04-25T02:04:34.826Z,93261.69
2023-04-25T02:07:21.816Z,93255.09
2023-04-25T02:10:09.087Z,93247.75
2023-04-25T02:12:55.929Z,93256.69
2023-04-25T02:15:42.914Z,93254.41
2023-04-25T02:18:29.844Z,93248.22
2023-04-25T02:21:16.656Z,93254.06
2023-04-25T02:24:04.257Z,93249.41
2023-04-25T02:26:51.446Z,93245.94
2023-04-25T02:29:38.250Z,93252.94
2023-04-25T02:32:25.342Z,93249.06
2023-04-25T02:35:12.154Z,93244.81
2023-04-25T02:37:58.937Z,93243.63
2023-04-25T02:40:45.818Z,93237.03
2023-04-25T02:43:32.658Z,93239.34
2023-04-25T02:46:32.214Z,93241.31
2023-04-25T02:49:24.916Z,93237.03
2023-04-25T02:52:12.401Z,93226.13
2023-04-25T02:54:59.237Z,93230.00
2023-04-25T02:57:46.030Z,93233.88
2023-04-25T03:00:32.840Z,93235.06
2023-04-25T03:03:22.709Z,93224.94
2023-04-25T03:06:09.793Z,93231.63
2023-04-25T03:08:56.610Z,93235.09
2023-04-25T03:11:44.677Z,93241.34
2023-04-25T03:14:31.430Z,93239.44
2023-04-25T03:17:18.339Z,93237.88
2023-04-25T03:20:06.241Z,93237.91
2023-04-25T03:22:53.158Z,93234.44
2023-04-25T03:25:39.969Z,93241.00
2023-04-25T03:28:26.771Z,93241.78
2023-04-25T03:31:13.528Z,93233.63
2023-04-25T03:34:00.386Z,93229.38
2023-04-25T03:36:47.156Z,93234.78
2023-04-25T03:39:33.978Z,93224.72
2023-04-25T03:42:20.887Z,93236.31
2023-04-25T03:45:08.549Z,93234.41
2023-04-25T03:47:55.332Z,93224.69
2023-04-25T03:50:42.150Z,93234.38
2023-04-25T03:53:28.918Z,93228.56
2023-04-25T03:56:16.046Z,93233.59
2023-04-25T03:59:02.954Z,93228.53
2023-04-25T04:01:49.832Z,93225.84
2023-04-25T04:04:36.903Z,93229.31
2023-04-25T04:07:24.009Z,93217.69
2023-04-25T04:10:11.584Z,93216.94
2023-04-25T04:12:58.428Z,93235.13
2023-04-25T04:15:45.366Z,93236.28
2023-04-25T04:18:32.231Z,93232.44
2023-04-25T04:21:19.053Z,93230.50
2023-04-25T04:24:06.513Z,93223.94
2023-04-25T04:26:53.987Z,93228.56
2023-04-25T04:29:40.903Z,93220.44
2023-04-25T04:32:28.560Z,93222.41
2023-04-25T04:35:15.498Z,93223.19
2023-04-25T04:38:02.386Z,93221.63
2023-04-25T04:40:49.241Z,93212.31
2023-04-25T04:43:36.135Z,93204.19
2023-04-25T04:46:23.277Z,93212.31
2023-04-25T04:49:11.432Z,93213.09
2023-04-25T04:51:59.650Z,93212.72
2023-04-25T04:54:46.637Z,93217.72
2023-04-25T04:57:33.993Z,93220.84
2023-04-25T05:00:21.707Z,93227.03
2023-04-25T05:03:08.773Z,93223.16
2023-04-25T05:05:56.014Z,93221.22
2023-04-25T05:08:42.856Z,93214.66
2023-04-25T05:11:29.730Z,93215.81
2023-04-25T05:14:17.971Z,93224.34
2023-04-25T05:17:07.617Z,93220.84
2023-04-25T05:19:54.411Z,93219.69
2023-04-25T05:22:42.779Z,93211.94
2023-04-25T05:25:30.005Z,93215.41
2023-04-25T05:28:16.807Z,93212.31
2023-04-25T05:31:03.727Z,93213.88
2023-04-25T05:33:50.955Z,93218.53
2023-04-25T05:36:37.920Z,93219.28
2023-04-25T05:39:24.762Z,93222.00
2023-04-25T05:42:11.666Z,93228.22
2023-04-25T05:44:58.488Z,93225.44
2023-04-25T05:47:45.488Z,93224.19
2023-04-25T05:50:32.312Z,93223.81
2023-04-25T05:53:20.286Z,93223.81
2023-04-25T05:56:07.119Z,93227.25
2023-04-25T05:58:54.175Z,93220.94
2023-04-25T06:01:41.406Z,93213.44
2023-04-25T06:04:28.364Z,93203.81
2023-04-25T06:07:15.529Z,93209.03
2023-04-25T06:10:02.542Z,93210.78
2023-04-25T06:12:49.911Z,93215.38
2023-04-25T06:15:45.544Z,93214.50
2023-04-25T06:18:32.404Z,93213.16
2023-04-25T06:21:19.282Z,93218.31
2023-04-25T06:24:06.512Z,93219.00
2023-04-25T06:26:53.763Z,93220.22
2023-04-25T06:29:40.569Z,93219.44
2023-04-25T06:32:29.259Z,93219.97
2023-04-25T06:35:16.398Z,93218.06
2023-04-25T06:38:03.275Z,93219.59
2023-04-25T06:40:50.249Z,93206.22
2023-04-25T06:43:37.242Z,93210.31
2023-04-25T06:46:24.301Z,93210.59
2023-04-25T06:49:11.173Z,93208.38
2023-04-25T06:51:58.017Z,93209.41
2023-04-25T06:54:45.548Z,93205.09
2023-04-25T06:57:32.405Z,93204.69
2023-04-25T07:00:19.772Z,93205.41
2023-04-25T07:03:06.753Z,93208.97
2023-04-25T07:05:53.641Z,93208.72
2023-04-25T07:08:40.491Z,93199.38
2023-04-25T07:11:27.316Z,93213.66
2023-04-25T07:14:14.186Z,93214.38
2023-04-25T07:17:01.170Z,93217.50
2023-04-25T07:19:48.094Z,93215.63
2023-04-25T07:22:34.886Z,93223.44
2023-04-25T07:25:21.747Z,93225.25
2023-04-25T07:28:08.653Z,93217.59
2023-04-25T07:30:55.640Z,93224.94
2023-04-25T07:33:42.480Z,93237.28
2023-04-25T07:36:29.345Z,93237.66
2023-04-25T07:39:16.214Z,93242.19
2023-04-25T07:42:03.251Z,93250.50
2023-04-25T07:44:50.080Z,93253.22
2023-04-25T07:47:37.333Z,93252.88
2023-04-25T07:50:24.540Z,93256.44
2023-04-25T07:53:11.398Z,93258.31
2023-04-25T07:55:58.254Z,93259.81
2023-04-25T07:58:45.214Z,93273.44
2023-04-25T08:01:32.122Z,93273.06
2023-04-25T08:04:19.146Z,93274.56
2023-04-25T08:07:06.753Z,93285.16
2023-04-25T08:09:55.361Z,93293.31
2023-04-25T08:12:42.211Z,93302.66
2023-04-25T08:15:29.077Z,93297.97
2023-04-25T08:18:17.560Z,93312.28
2023-04-25T08:21:04.887Z,93317.75
2023-04-25T08:23:51.738Z,93318.50
2023-04-25T08:26:39.619Z,93315.44
2023-04-25T08:29:26.959Z,93330.97
2023-04-25T08:32:13.838Z,93320.47
2023-04-25T08:35:00.771Z,93320.06
2023-04-25T08:37:47.801Z,93326.22
2023-04-25T08:40:39.808Z,93327.75
2023-04-25T08:43:26.724Z,93334.38
2023-04-25T08:46:14.048Z,93333.59
2023-04-25T08:49:03.369Z,93345.63
2023-04-25T08:51:52.154Z,93352.28
2023-04-25T08:54:44.481Z,93352.91
2023-04-25T08:57:32.466Z,93362.47
2023-04-25T09:00:19.948Z,93364.72
2023-04-25T09:03:07.084Z,93374.75
2023-04-25T09:05:55.851Z,93376.16
2023-04-25T09:08:42.769Z,93377.91
2023-04-25T09:11:29.816Z,93389.41
2023-04-25T09:14:26.116Z,93394.84
2023-04-25T09:17:13.238Z,93389.13
2023-04-25T09:20:10.920Z,93401.75
2023-04-25T09:23:08.233Z,93392.19
2023-04-25T09:25:55.185Z,93401.56
2023-04-25T09:28:44.006Z,93410.38
2023-04-25T09:31:33.951Z,93400.41
2023-04-25T09:34:21.242Z,93395.00
2023-04-25T09:37:10.077Z,93393.22
2023-04-25T09:40:00.291Z,93397.34
2023-04-25T09:42:47.318Z,93399.78
2023-04-25T09:45:42.836Z,93413.16
2023-04-25T09:48:30.765Z,93411.75
2023-04-25T09:51:17.986Z,93411.03
2023-04-25T09:54:04.926Z,93417.81
2023-04-25T09:56:55.232Z,93411.56
2023-04-25T09:59:53.541Z,93416.50
2023-04-25T10:02:47.873Z,93422.66
2023-04-25T10:05:36.727Z,93420.31
2023-04-25T10:08:24.668Z,93420.78
2023-04-25T10:11:11.695Z,93416.97
2023-04-25T10:13:58.970Z,93413.16
2023-04-25T10:16:46.475Z,93410.25
2023-04-25T10:19:33.958Z,93400.72
2023-04-25T10:22:32.084Z,93404.25
2023-04-25T10:25:19.383Z,93406.59
2023-04-25T10:28:06.297Z,93399.28
2023-04-25T10:31:19.381Z,93404.00
2023-04-25T10:34:06.473Z,93405.88
2023-04-25T10:36:54.056Z,93418.34
2023-04-25T10:39:42.910Z,93426.13
2023-04-25T10:42:30.041Z,93427.53
2023-04-25T10:45:16.875Z,93419.88
2023-04-25T10:48:04.085Z,93427.28
2023-04-25T10:50:50.931Z,93424.44
2023-04-25T10:53:38.159Z,93422.66
2023-04-25T10:56:29.254Z,93428.66
2023-04-25T10:59:21.397Z,93429.34
2023-04-25T11:02:14.336Z,93426.25
2023-04-25T11:05:01.482Z,93433.44
2023-04-25T11:08:03.824Z,93432.69
2023-04-25T11:10:53.890Z,93433.59
2023-04-25T11:13:40.669Z,93443.16
2023-04-25T11:16:28.651Z,93436.50
2023-04-25T11:19:15.898Z,93434.38
2023-04-25T11:22:04.723Z,93448.03
2023-04-25T11:24:52.271Z,93445.50
2023-04-25T11:27:55.295Z,93434.19
2023-04-25T11:30:51.026Z,93434.19
2023-04-25T11:33:37.876Z,93432.25
2023-04-25T11:36:25.587Z,93434.19
2023-04-25T11:39:13.044Z,93437.03
2023-04-25T11:42:02.043Z,93442.91
2023-04-25T11:44:55.631Z,93437.69
2023-04-25T11:47:42.733Z,93438.06
2023-04-25T11:50:29.600Z,93428.78
2023-04-25T11:53:18.941Z,93446.59
2023-04-25T11:56:11.724Z,93441.09
2023-04-25T11:59:00.372Z,93437.53
2023-04-25T12:02:00.731Z,93456.91
2023-04-25T12:04:48.050Z,93444.78
2023-04-25T12:07:35.418Z,93461.88
2023-04-25T12:10:22.713Z,93455.09
2023-04-25T12:13:26.658Z,93455.22
2023-04-25T12:16:13.562Z,93459.47
2023-04-25T12:19:00.891Z,93455.56
2023-04-25T12:24:39.416Z,93455.44
2023-04-25T12:27:29.811Z,93468.22
2023-04-25T12:30:16.718Z,93466.09
2023-04-25T12:33:03.552Z,93462.41
2023-04-25T12:35:50.516Z,93470.16
2023-04-25T12:38:39.865Z,93462.75
2023-04-25T12:41:26.657Z,93469.38
2023-04-25T12:44:14.376Z,93461.22
2023-04-25T12:47:01.404Z,93479.91
2023-04-25T12:49:48.299Z,93472.81
2023-04-25T12:52:35.114Z,93481.88
2023-04-25T12:55:22.001Z,93475.84
2023-04-25T12:58:08.853Z,93482.88
2023-04-25T13:00:55.802Z,93487.72
2023-04-25T13:03:43.018Z,93497.75
2023-04-25T13:06:31.950Z,93495.25
2023-04-25T13:09:18.855Z,93499.72
2023-04-25T13:12:06.057Z,93499.19
2023-04-25T13:14:52.969Z,93507.59
2023-04-25T13:17:39.863Z,93509.50
2023-04-25T13:20:26.939Z,93496.19
2023-04-25T13:23:13.815Z,93493.50
2023-04-25T13:26:02.398Z,93496.63
2023-04-25T13:28:49.239Z,93498.41
2023-04-25T13:31:36.042Z,93497.34
2023-04-25T13:34:22.849Z,93508.97
2023-04-25T13:37:09.701Z,93506.91
2023-04-25T13:39:57.342Z,93510.69
2023-04-25T13:42:46.341Z,93496.03
2023-04-25T13:45:33.701Z,93509.69
2023-04-25T13:48:21.104Z,93501.22
2023-04-25T13:51:08.124Z,93502.53
2023-04-25T13:53:54.938Z,93504.25
2023-04-25T13:56:43.434Z,93507.19
2023-04-25T13:59:30.398Z,93509.94
2023-04-25T14:02:17.258Z,93521.13
2023-04-25T14:05:06.036Z,93519.47
2023-04-25T14:07:52.990Z,93518.50
2023-04-25T14:10:39.896Z,93531.78
2023-04-25T14:13:26.914Z,93526.38
2023-04-25T14:16:13.915Z,93525.50
2023-04-25T14:19:01.427Z,93525.09
2023-04-25T14:21:48.255Z,93529.25
2023-04-25T14:24:35.722Z,93527.13
2023-04-25T14:27:22.566Z,93530.78
2023-04-25T14:30:10.559Z,93528.44
2023-04-25T14:33:03.329Z,93526.00
2023-04-25T14:35:50.440Z,93531.44
2023-04-25T14:38:37.395Z,93522.03
2023-04-25T14:41:25.102Z,93531.16
2023-04-25T14:44:12.043Z,93528.66
2023-04-25T14:46:58.986Z,93531.94
2023-04-25T14:49:52.093Z,93524.75
2023-04-25T14:52:39.190Z,93528.63
2023-04-25T14:55:26.355Z,93525.44
2023-04-25T14:58:13.525Z,93538.88
2023-04-25T15:01:01.339Z,93531.63
2023-04-25T15:03:49.459Z,93542.47
2023-04-25T15:06:37.268Z,93538.94
2023-04-25T15:09:25.062Z,93549.72
2023-04-25T15:12:12.594Z,93546.28
2023-04-25T15:14:59.459Z,93546.50
2023-04-25T15:17:46.492Z,93544.50
2023-04-25T15:20:33.500Z,93544.59
2023-04-25T15:23:21.415Z,93556.09
2023-04-25T15:26:08.898Z,93552.56
2023-04-25T15:28:56.212Z,93550.22
2023-04-25T15:31:43.171Z,93553.94
2023-04-25T15:34:30.057Z,93556.41
2023-04-25T15:37:16.939Z,93558.47
2023-04-25T15:40:10.064Z,93555.34
2023-04-25T15:42:56.915Z,93555.78
2023-04-25T15:45:43.956Z,93560.09
2023-04-25T15:48:32.393Z,93560.78
2023-04-25T15:51:19.260Z,93551.66
2023-04-25T15:54:06.190Z,93561.66
2023-04-25T15:56:53.022Z,93551.78
2023-04-25T15:59:39.829Z,93555.53
2023-04-25T16:02:26.886Z,93566.19
2023-04-25T16:05:15.552Z,93578.56
2023-04-25T16:08:04.660Z,93578.31
2023-04-25T16:10:51.661Z,93581.84
2023-04-25T16:13:38.505Z,93579.22
2023-04-25T16:16:26.441Z,93579.19
2023-04-25T16:19:13.356Z,93587.44
2023-04-25T16:22:00.493Z,93588.94
2023-04-25T16:24:47.667Z,93576.56
2023-04-25T16:27:35.262Z,93588.84
2023-04-25T16:30:22.198Z,93585.22
2023-04-25T16:33:09.131Z,93588.34
2023-04-25T16:35:55.954Z,93581.53
2023-04-25T16:38:43.087Z,93582.53
2023-04-25T16:41:30.270Z,93592.78
2023-04-25T16:44:17.175Z,93589.41
2023-04-25T16:47:05.975Z,93586.25
2023-04-25T16:49:53.390Z,93589.00
2023-04-25T16:52:41.882Z,93590.84
2023-04-25T16:55:29.328Z,93589.97
2023-04-25T16:58:16.395Z,93599.97
2023-04-25T17:01:03.410Z,93591.28
2023-04-25T17:03:50.615Z,93599.66
2023-04-25T17:06:38.099Z,93601.94
2023-04-25T17:09:24.935Z,93600.78
2023-04-25T17:12:11.883Z,93595.06
2023-04-25T17:15:00.343Z,93596.03
2023-04-25T17:17:47.365Z,93605.63
2023-04-25T17:20:35.125Z,93601.06
2023-04-25T17:23:22.544Z,93606.16
2023-04-25T17:26:09.434Z,93614.19
2023-04-25T17:28:56.285Z,93613.81
2023-04-25T17:31:44.528Z,93620.78
2023-04-25T17:34:31.871Z,93621.53
2023-04-25T17:37:18.918Z,93623.31
2023-04-25T17:40:08.816Z,93633.41
2023-04-25T17:42:55.716Z,93626.34
2023-04-25T17:45:42.553Z,93627.84
2023-04-25T17:48:30.675Z,93636.00
2023-04-25T17:51:17.496Z,93643.50
2023-04-25T17:54:04.376Z,93645.06
2023-04-25T17:56:53.429Z,93653.66
2023-04-25T17:59:40.260Z,93649.78
2023-04-25T18:02:27.435Z,93651.28
2023-04-25T18:05:15.624Z,93652.84
2023-04-25T18:08:02.613Z,93659.84
2023-04-25T18:10:49.482Z,93655.19
2023-04-25T18:13:37.108Z,93660.66
2023-04-25T18:16:23.991Z,93666.50
2023-04-25T18:19:21.273Z,93662.53
2023-04-25T18:22:08.154Z,93670.66
2023-04-25T18:24:54.984Z,93671.47
2023-04-25T18:27:42.371Z,93673.03
2023-04-25T18:30:29.250Z,93672.28
2023-04-25T18:33:16.415Z,93675.84
2023-04-25T18:36:03.291Z,93683.69
2023-04-25T18:38:56.199Z,93682.94
2023-04-25T18:41:55.123Z,93688.47
2023-04-25T18:44:46.453Z,93697.41
2023-04-25T18:47:33.451Z,93692.75
2023-04-25T18:50:22.669Z,93704.47
2023-04-25T18:53:09.506Z,93702.53
2023-04-25T18:55:56.326Z,93709.16
2023-04-25T18:58:43.618Z,93716.56
2023-04-25T19:01:30.552Z,93716.91
2023-04-25T19:04:17.515Z,93727.44
2023-04-25T19:07:04.644Z,93723.19
2023-04-25T19:09:51.539Z,93726.34
2023-04-25T19:12:38.434Z,93734.53
2023-04-25T19:15:25.895Z,93738.03
2023-04-25T19:18:12.853Z,93730.63
2023-04-25T19:21:00.336Z,93734.88
2023-04-25T19:23:47.331Z,93742.66
2023-04-25T19:26:34.400Z,93741.50
2023-04-25T19:29:21.409Z,93742.25
2023-04-25T19:32:08.353Z,93742.63
2023-04-25T19:34:55.227Z,93742.63
2023-04-25T19:37:46.575Z,93753.50
2023-04-25T19:40:33.743Z,93747.66
2023-04-25T19:43:20.597Z,93747.31
2023-04-25T19:46:07.690Z,93750.81
2023-04-25T19:48:55.439Z,93747.28
2023-04-25T19:51:42.548Z,93745.34
2023-04-25T19:54:29.679Z,93744.97
2023-04-25T19:57:16.480Z,93748.47
2023-04-25T20:00:10.787Z,93748.50
2023-04-25T20:02:57.806Z,93753.97
2023-04-25T20:05:44.744Z,93758.63
2023-04-25T20:08:31.995Z,93745.78
2023-04-25T20:11:19.014Z,93757.03
2023-04-25T20:14:05.939Z,93762.94
2023-04-25T20:16:53.962Z,93761.78
2023-04-25T20:19:40.924Z,93748.94
2023-04-25T20:22:31.754Z,93748.91
2023-04-25T20:25:19.167Z,93753.63
2023-04-25T20:28:06.211Z,93762.56
2023-04-25T20:30:53.094Z,93764.53
2023-04-25T20:33:41.790Z,93775.41
2023-04-25T20:36:29.581Z,93775.41
2023-04-25T20:39:17.226Z,93773.47
2023-04-25T20:42:04.102Z,93766.81
2023-04-25T20:44:50.941Z,93773.44
2023-04-25T20:47:37.860Z,93771.88
2023-04-25T20:50:25.331Z,93770.75
2023-04-25T20:53:12.333Z,93767.25
2023-04-25T20:55:59.624Z,93766.81
2023-04-25T20:58:47.281Z,93780.84
2023-04-25T21:01:34.491Z,93770.38
2023-04-25T21:04:21.848Z,93779.31
2023-04-25T21:07:08.782Z,93780.84
2023-04-25T21:09:55.608Z,93775.78
2023-04-25T21:12:47.364Z,93769.56
2023-04-25T21:15:34.335Z,93778.91
2023-04-25T21:18:21.373Z,93770.34
2023-04-25T21:21:08.263Z,93772.28
2023-04-25T21:23:55.546Z,93784.34
2023-04-25T21:26:42.488Z,93780.47
2023-04-25T21:29:29.342Z,93775.38
2023-04-25T21:32:20.752Z,93776.16
2023-04-25T21:35:07.896Z,93772.59
2023-04-25T21:37:54.977Z,93770.28
2023-04-25T21:40:41.850Z,93777.63
2023-04-25T21:43:28.731Z,93774.06
2023-04-25T21:46:23.335Z,93779.47
2023-04-25T21:49:11.397Z,93780.59
2023-04-25T21:51:58.487Z,93785.63
2023-04-25T21:54:45.602Z,93788.78
2023-04-25T21:57:33.377Z,93795.69
2023-04-25T22:00:22.005Z,93786.31
2023-04-25T22:03:09.074Z,93796.72
2023-04-25T22:05:56.480Z,93797.13
2023-04-25T22:08:43.291Z,93789.75
2023-04-25T22:11:30.077Z,93788.94
2023-04-25T22:14:16.967Z,93795.22
2023-04-25T22:17:04.384Z,93801.13
2023-04-25T22:19:52.338Z,93812.88
2023-04-25T22:22:42.918Z,93815.19
2023-04-25T22:25:29.749Z,93814.41
2023-04-25T22:28:16.680Z,93812.09
2023-04-25T22:31:03.708Z,93820.72
2023-04-25T22:33:51.297Z,93816.06
2023-04-25T22:36:38.311Z,93815.75
2023-04-25T22:39:25.386Z,93821.59
2023-04-25T22:42:12.211Z,93820.03
2023-04-25T22:44:59.680Z,93818.50
2023-04-25T22:47:46.620Z,93824.34
2023-04-25T22:50:33.553Z,93817.72
2023-04-25T22:53:20.376Z,93832.53
2023-04-25T22:56:08.055Z,93830.97
2023-04-25T22:58:55.051Z,93820.88
2023-04-25T23:01:42.648Z,93829.03
2023-04-25T23:04:30.416Z,93831.00
2023-04-25T23:07:18.292Z,93823.22
2023-04-25T23:10:07.561Z,93819.69
2023-04-25T23:12:57.265Z,93832.44
2023-04-25T23:15:44.137Z,93824.63
2023-04-25T23:18:30.973Z,93826.13
2023-04-25T23:21:18.437Z,93817.19
2023-04-25T23:24:05.899Z,93821.47
2023-04-25T23:26:52.728Z,93812.53
2023-04-25T23:29:40.569Z,93819.56
2023-04-25T23:32:27.462Z,93815.66
2023-04-25T23:35:14.648Z,93807.09
2023-04-25T23:38:02.269Z,93814.16
2023-04-25T23:40:49.075Z,93818.31
2023-04-25T23:43:36.149Z,93821.06
2023-04-25T23:46:23.028Z,93818.38
2023-04-25T23:49:09.858Z,93826.13
2023-04-25T23:51:56.728Z,93818.69
2023-04-25T23:54:43.553Z,93819.50
2023-04-25T23:57:30.832Z,93826.50
